createdAt,value
2022-12-24T00:01:59.383Z,7.93
2022-12-24T00:04:20.878Z,9.60
2022-12-24T00:06:42.354Z,8.00
2022-12-24T00:09:04.329Z,5.40
2022-12-24T00:11:25.805Z,10.60
2022-12-24T00:13:47.493Z,7.63
2022-12-24T00:16:09.008Z,13.23
2022-12-24T00:18:30.696Z,11.33
2022-12-24T00:20:52.694Z,8.50
2022-12-24T00:23:15.239Z,7.53
2022-12-24T00:25:36.740Z,9.77
2022-12-24T00:27:58.216Z,8.80
2022-12-24T00:30:19.661Z,11.73
2022-12-24T00:32:41.099Z,8.90
2022-12-24T00:35:02.552Z,13.43
2022-12-24T00:37:24.030Z,8.37
2022-12-24T00:39:45.467Z,8.50
2022-12-24T00:42:06.937Z,11.03
2022-12-24T00:44:28.660Z,7.93
2022-12-24T00:46:51.028Z,7.57
2022-12-24T00:49:12.773Z,9.43
2022-12-24T00:51:35.970Z,8.97
2022-12-24T00:53:57.561Z,10.87
2022-12-24T00:56:19.760Z,10.40
2022-12-24T00:58:41.455Z,10.47
2022-12-24T01:01:03.365Z,10.47
2022-12-24T01:03:34.739Z,12.60
2022-12-24T01:05:56.261Z,8.53
2022-12-24T01:08:17.740Z,10.03
2022-12-24T01:10:39.168Z,9.23
2022-12-24T01:13:03.821Z,9.30
2022-12-24T01:15:25.255Z,10.93
2022-12-24T01:17:46.731Z,8.63
2022-12-24T01:20:14.241Z,9.27
2022-12-24T01:22:36.047Z,10.30
2022-12-24T01:24:57.506Z,7.47
2022-12-24T01:27:19.091Z,13.73
2022-12-24T01:29:40.527Z,6.43
2022-12-24T01:32:01.993Z,9.83
2022-12-24T01:34:23.443Z,8.27
2022-12-24T01:36:44.869Z,7.93
2022-12-24T01:39:06.415Z,9.60
2022-12-24T01:41:46.308Z,11.07
2022-12-24T01:44:35.186Z,12.47
2022-12-24T01:46:57.824Z,3.90
2022-12-24T01:49:19.772Z,8.20
2022-12-24T01:51:52.356Z,8.20
2022-12-24T01:54:13.761Z,11.50
2022-12-24T01:56:40.242Z,9.40
2022-12-24T01:59:08.354Z,12.23
2022-12-24T02:01:30.613Z,8.60
2022-12-24T02:03:52.380Z,9.43
2022-12-24T02:06:18.356Z,9.80
2022-12-24T02:08:42.879Z,10.50
2022-12-24T02:11:09.862Z,9.00
2022-12-24T02:13:31.313Z,11.33
2022-12-24T02:16:02.188Z,12.33
2022-12-24T02:18:43.385Z,8.23
2022-12-24T02:21:52.034Z,6.70
2022-12-24T02:24:54.946Z,6.57
2022-12-24T02:27:42.158Z,7.93
2022-12-24T02:30:19.858Z,7.20
2022-12-24T02:32:44.918Z,12.47
2022-12-24T02:35:15.900Z,11.17
2022-12-24T02:37:43.495Z,7.70
2022-12-24T02:40:31.575Z,13.20
2022-12-24T02:43:01.077Z,10.60
2022-12-24T02:45:29.152Z,12.47
2022-12-24T02:47:52.327Z,9.57
2022-12-24T02:50:15.675Z,7.57
2022-12-24T02:52:42.658Z,7.57
2022-12-24T02:55:27.042Z,9.17
2022-12-24T02:58:22.655Z,10.60
2022-12-24T03:00:56.425Z,9.53
2022-12-24T03:03:46.020Z,11.37
2022-12-24T03:06:23.780Z,10.17
2022-12-24T03:09:00.263Z,13.83
2022-12-24T03:11:21.954Z,7.83
2022-12-24T03:13:44.510Z,9.90
2022-12-24T03:16:17.304Z,13.07
2022-12-24T03:18:42.490Z,15.03
2022-12-24T03:21:10.015Z,11.10
2022-12-24T03:23:31.621Z,9.73
2022-12-24T03:25:53.355Z,10.53
2022-12-24T03:28:17.995Z,9.40
2022-12-24T03:30:41.535Z,9.37
2022-12-24T03:33:03.022Z,7.00
2022-12-24T03:35:24.485Z,7.30
2022-12-24T03:37:46.012Z,6.63
2022-12-24T03:40:08.254Z,6.10
2022-12-24T03:42:29.743Z,10.00
2022-12-24T03:44:51.177Z,10.77
2022-12-24T03:47:12.937Z,10.10
2022-12-24T03:49:34.403Z,7.93
2022-12-24T03:51:55.807Z,9.03
2022-12-24T03:54:17.260Z,12.13
2022-12-24T03:56:38.700Z,10.23
2022-12-24T03:59:00.153Z,8.77
2022-12-24T04:01:21.722Z,10.53
2022-12-24T04:03:43.933Z,5.70
2022-12-24T04:06:11.271Z,12.93
2022-12-24T04:08:32.887Z,9.77
2022-12-24T04:10:54.358Z,9.17
2022-12-24T04:13:15.814Z,12.47
2022-12-24T04:15:37.263Z,9.73
2022-12-24T04:17:58.726Z,9.63
2022-12-24T04:20:20.147Z,12.47
2022-12-24T04:22:42.249Z,13.70
2022-12-24T04:25:03.835Z,14.00
2022-12-24T04:27:30.066Z,12.10
2022-12-24T04:29:52.355Z,6.43
2022-12-24T04:32:13.900Z,10.13
2022-12-24T04:34:35.669Z,13.23
2022-12-24T04:36:57.074Z,10.43
2022-12-24T04:39:18.599Z,7.27
2022-12-24T04:41:40.031Z,10.87
2022-12-24T04:44:01.512Z,11.17
2022-12-24T04:46:30.608Z,9.30
2022-12-24T04:48:54.462Z,12.40
2022-12-24T04:51:17.056Z,9.20
2022-12-24T04:53:39.367Z,9.13
2022-12-24T04:56:01.396Z,6.53
2022-12-24T04:58:22.840Z,9.57
2022-12-24T05:00:44.283Z,8.97
2022-12-24T05:03:05.778Z,10.00
2022-12-24T05:05:27.210Z,9.00
2022-12-24T05:07:48.700Z,13.37
2022-12-24T05:10:11.119Z,12.00
2022-12-24T05:12:32.775Z,10.07
2022-12-24T05:14:54.244Z,9.27
2022-12-24T05:17:15.793Z,10.30
2022-12-24T05:19:37.344Z,13.27
2022-12-24T05:22:17.414Z,13.67
2022-12-24T05:24:57.525Z,11.40
2022-12-24T05:27:19.051Z,7.90
2022-12-24T05:29:40.486Z,14.03
2022-12-24T05:32:01.963Z,14.10
2022-12-24T05:34:23.470Z,11.20
2022-12-24T05:36:45.094Z,10.07
2022-12-24T05:39:11.454Z,12.03
2022-12-24T05:41:36.719Z,13.40
2022-12-24T05:43:58.408Z,10.03
2022-12-24T05:46:22.085Z,9.37
2022-12-24T05:48:43.638Z,9.70
2022-12-24T05:51:07.563Z,12.10
2022-12-24T05:53:28.998Z,11.23
2022-12-24T05:55:50.837Z,8.87
2022-12-24T05:58:12.901Z,11.50
2022-12-24T06:00:34.433Z,8.53
2022-12-24T06:02:55.957Z,9.30
2022-12-24T06:05:17.461Z,15.10
2022-12-24T06:07:38.912Z,15.50
2022-12-24T06:10:00.436Z,11.80
2022-12-24T06:12:21.903Z,13.93
2022-12-24T06:14:43.331Z,10.67
2022-12-24T06:17:04.778Z,12.90
2022-12-24T06:19:26.333Z,14.23
2022-12-24T06:21:47.894Z,10.67
2022-12-24T06:24:09.368Z,12.37
2022-12-24T06:26:30.811Z,13.97
2022-12-24T06:28:52.421Z,11.67
2022-12-24T06:31:16.952Z,15.10
2022-12-24T06:33:38.762Z,12.07
2022-12-24T06:36:00.788Z,18.10
2022-12-24T06:38:22.372Z,17.53
2022-12-24T06:40:45.180Z,10.83
2022-12-24T06:43:06.670Z,8.13
2022-12-24T06:45:28.097Z,14.73
2022-12-24T06:47:49.669Z,10.00
2022-12-24T06:50:11.645Z,16.03
2022-12-24T06:52:33.175Z,10.63
2022-12-24T06:54:54.628Z,9.77
2022-12-24T06:57:16.091Z,9.07
2022-12-24T06:59:37.538Z,9.57
2022-12-24T07:01:59.196Z,8.97
2022-12-24T07:04:20.909Z,9.27
2022-12-24T07:06:42.423Z,11.50
2022-12-24T07:09:04.071Z,8.57
2022-12-24T07:11:25.918Z,12.17
2022-12-24T07:13:47.698Z,7.60
2022-12-24T07:16:09.767Z,8.60
2022-12-24T07:18:31.819Z,5.97
2022-12-24T07:20:53.375Z,6.93
2022-12-24T07:23:14.832Z,4.70
2022-12-24T07:25:36.266Z,7.80
2022-12-24T07:27:57.718Z,7.53
2022-12-24T07:30:19.217Z,2.93
2022-12-24T07:32:40.651Z,3.10
2022-12-24T07:35:02.177Z,9.43
2022-12-24T07:37:23.643Z,6.33
2022-12-24T07:39:45.230Z,4.70
2022-12-24T07:42:08.139Z,4.60
2022-12-24T07:44:29.678Z,7.40
2022-12-24T07:46:51.522Z,3.53
2022-12-24T07:49:13.128Z,3.90
2022-12-24T07:51:34.583Z,3.57
2022-12-24T07:53:56.068Z,5.87
2022-12-24T07:56:17.564Z,5.27
2022-12-24T07:58:39.068Z,4.00
2022-12-24T08:01:00.731Z,5.07
2022-12-24T08:03:22.500Z,2.07
2022-12-24T08:05:44.588Z,3.60
2022-12-24T08:08:06.030Z,2.50
2022-12-24T08:10:27.590Z,2.83
2022-12-24T08:12:50.147Z,3.90
2022-12-24T08:15:12.185Z,2.60
2022-12-24T08:17:33.659Z,4.07
2022-12-24T08:19:55.134Z,2.97
2022-12-24T08:22:16.595Z,3.47
2022-12-24T08:24:38.050Z,3.57
2022-12-24T08:26:59.499Z,4.47
2022-12-24T08:29:21.049Z,4.50
2022-12-24T08:31:42.616Z,5.70
2022-12-24T08:34:05.536Z,3.20
2022-12-24T08:36:26.982Z,7.23
2022-12-24T08:38:48.532Z,4.47
2022-12-24T08:41:10.005Z,5.00
2022-12-24T08:43:31.605Z,5.50
2022-12-24T08:45:53.472Z,3.93
2022-12-24T08:48:14.967Z,4.77
2022-12-24T08:50:39.299Z,5.07
2022-12-24T08:53:00.804Z,7.47
2022-12-24T08:55:22.288Z,6.33
2022-12-24T08:57:43.748Z,7.57
2022-12-24T09:00:07.909Z,5.00
2022-12-24T09:02:29.455Z,6.67
2022-12-24T09:04:51.110Z,7.50
2022-12-24T09:07:12.668Z,4.50
2022-12-24T09:09:37.842Z,7.43
2022-12-24T09:11:59.839Z,3.63
2022-12-24T09:14:21.288Z,7.67
2022-12-24T09:16:42.751Z,6.47
2022-12-24T09:19:04.303Z,10.43
2022-12-24T09:21:26.056Z,8.10
2022-12-24T09:23:48.204Z,8.53
2022-12-24T09:26:13.890Z,5.97
2022-12-24T09:28:35.844Z,8.57
2022-12-24T09:30:59.182Z,6.23
2022-12-24T09:33:20.610Z,10.87
2022-12-24T09:35:42.044Z,8.00
2022-12-24T09:38:04.299Z,9.40
2022-12-24T09:40:38.004Z,12.23
2022-12-24T09:43:00.589Z,12.43
2022-12-24T09:45:28.721Z,6.80
2022-12-24T09:47:58.445Z,11.03
2022-12-24T09:50:29.163Z,8.57
2022-12-24T09:52:52.484Z,6.93
2022-12-24T09:55:30.563Z,8.87
2022-12-24T09:57:54.482Z,10.93
2022-12-24T10:00:35.784Z,10.50
2022-12-24T10:02:57.709Z,8.73
2022-12-24T10:05:36.951Z,7.97
2022-12-24T10:08:11.122Z,9.33
2022-12-24T10:10:55.283Z,5.97
2022-12-24T10:13:23.893Z,6.50
2022-12-24T10:16:01.989Z,7.17
2022-12-24T10:18:52.703Z,10.03
2022-12-24T10:21:40.606Z,10.30
2022-12-24T10:24:35.326Z,11.90
2022-12-24T10:27:16.844Z,11.27
2022-12-24T10:29:42.552Z,7.33
2022-12-24T10:32:09.763Z,9.67
2022-12-24T10:34:40.158Z,9.17
2022-12-24T10:37:04.367Z,11.00
2022-12-24T10:39:27.268Z,8.77
2022-12-24T10:41:51.670Z,10.53
2022-12-24T10:44:19.172Z,10.40
2022-12-24T10:46:40.813Z,10.43
2022-12-24T10:49:08.569Z,9.50
2022-12-24T10:51:48.541Z,10.03
2022-12-24T10:54:17.303Z,8.87
2022-12-24T10:56:47.921Z,8.93
2022-12-24T10:59:31.559Z,7.40
2022-12-24T11:01:53.881Z,11.97
2022-12-24T11:04:24.291Z,7.77
2022-12-24T11:07:01.595Z,12.53
2022-12-24T11:09:32.500Z,11.57
2022-12-24T11:11:56.185Z,12.07
2022-12-24T11:14:21.157Z,10.73
2022-12-24T11:16:50.695Z,7.13
2022-12-24T11:19:18.667Z,15.23
2022-12-24T11:21:41.380Z,15.60
2022-12-24T11:24:24.038Z,12.37
2022-12-24T11:26:45.641Z,12.13
2022-12-24T11:29:19.347Z,11.13
2022-12-24T11:31:42.647Z,12.77
2022-12-24T11:34:23.437Z,15.97
2022-12-24T11:36:45.003Z,12.63
2022-12-24T11:39:06.581Z,13.63
2022-12-24T11:41:37.343Z,11.33
2022-12-24T11:44:03.829Z,9.57
2022-12-24T11:46:28.180Z,15.63
2022-12-24T11:49:08.095Z,11.60
2022-12-24T11:51:29.972Z,15.23
2022-12-24T11:54:10.104Z,20.17
2022-12-24T11:56:43.044Z,11.57
2022-12-24T11:59:33.256Z,13.80
2022-12-24T12:02:00.343Z,19.43
2022-12-24T12:04:25.585Z,16.90
2022-12-24T12:06:48.504Z,13.60
2022-12-24T12:09:18.980Z,15.87
2022-12-24T12:11:44.276Z,10.00
2022-12-24T12:14:09.221Z,14.17
2022-12-24T12:17:03.809Z,18.03
2022-12-24T12:19:27.965Z,13.03
2022-12-24T12:21:50.499Z,11.77
2022-12-24T12:24:32.312Z,9.73
2022-12-24T12:27:05.017Z,9.37
2022-12-24T12:29:40.210Z,13.87
2022-12-24T12:32:11.084Z,13.93
2022-12-24T12:34:59.331Z,12.53
2022-12-24T12:37:28.777Z,9.97
2022-12-24T12:39:51.091Z,9.63
2022-12-24T12:42:34.192Z,20.40
2022-12-24T12:45:07.625Z,15.57
2022-12-24T12:47:41.192Z,10.63
2022-12-24T12:50:23.117Z,18.87
2022-12-24T12:53:09.625Z,10.63
2022-12-24T12:55:49.253Z,15.33
2022-12-24T12:58:35.466Z,12.23
2022-12-24T13:01:06.590Z,13.60
2022-12-24T13:03:54.790Z,13.70
2022-12-24T13:06:37.250Z,12.87
2022-12-24T13:09:23.433Z,12.03
2022-12-24T13:12:08.187Z,10.30
2022-12-24T13:14:56.425Z,9.60
2022-12-24T13:17:27.095Z,13.17
2022-12-24T13:20:21.919Z,13.07
2022-12-24T13:23:13.604Z,17.00
2022-12-24T13:25:38.659Z,9.13
2022-12-24T13:28:24.008Z,10.83
2022-12-24T13:30:45.529Z,11.97
2022-12-24T13:33:14.449Z,9.90
2022-12-24T13:35:38.359Z,11.10
2022-12-24T13:38:28.375Z,5.83
2022-12-24T13:40:49.807Z,6.20
2022-12-24T13:43:12.527Z,7.13
2022-12-24T13:45:34.142Z,4.93
2022-12-24T13:47:57.132Z,7.90
2022-12-24T13:50:27.329Z,5.73
2022-12-24T13:52:53.755Z,6.13
2022-12-24T13:55:17.351Z,9.10
2022-12-24T13:57:48.343Z,7.63
2022-12-24T14:00:12.777Z,9.47
2022-12-24T14:02:39.664Z,14.40
2022-12-24T14:05:08.569Z,14.63
2022-12-24T14:07:30.702Z,12.23
2022-12-24T14:09:52.589Z,16.83
2022-12-24T14:12:28.580Z,10.97
2022-12-24T14:14:50.052Z,12.77
2022-12-24T14:17:20.571Z,12.00
2022-12-24T14:19:44.915Z,11.57
2022-12-24T14:22:27.974Z,14.60
2022-12-24T14:25:01.820Z,15.03
2022-12-24T14:27:36.260Z,14.53
2022-12-24T14:30:18.711Z,17.07
2022-12-24T14:32:40.931Z,12.50
2022-12-24T14:35:06.966Z,11.70
2022-12-24T14:37:34.511Z,19.40
2022-12-24T14:39:57.299Z,19.30
2022-12-24T14:42:49.993Z,15.77
2022-12-24T14:45:28.111Z,15.67
2022-12-24T14:48:11.615Z,14.83
2022-12-24T14:50:53.275Z,21.93
2022-12-24T14:53:28.411Z,15.63
2022-12-24T14:55:50.606Z,15.43
2022-12-24T14:58:31.174Z,17.43
2022-12-24T15:00:58.280Z,20.10
2022-12-24T15:03:24.028Z,16.83
2022-12-24T15:05:46.341Z,15.70
2022-12-24T15:08:19.693Z,21.00
2022-12-24T15:10:44.150Z,11.87
2022-12-24T15:13:20.688Z,12.33
2022-12-24T15:15:52.028Z,15.83
2022-12-24T15:18:16.992Z,15.07
2022-12-24T15:20:46.288Z,14.73
2022-12-24T15:23:19.279Z,13.20
2022-12-24T15:25:40.784Z,13.63
2022-12-24T15:28:02.309Z,13.23
2022-12-24T15:30:27.675Z,16.03
2022-12-24T15:32:54.444Z,14.27
2022-12-24T15:35:44.801Z,16.53
2022-12-24T15:38:25.626Z,14.97
2022-12-24T15:40:49.445Z,16.07
2022-12-24T15:43:10.957Z,17.87
2022-12-24T15:45:39.442Z,22.57
2022-12-24T15:48:12.311Z,11.57
2022-12-24T15:50:35.952Z,18.83
2022-12-24T15:53:19.842Z,17.03
2022-12-24T15:55:59.286Z,18.33
2022-12-24T15:58:27.701Z,12.70
2022-12-24T16:01:14.167Z,19.53
2022-12-24T16:03:39.246Z,13.43
2022-12-24T16:06:08.336Z,15.50
2022-12-24T16:08:41.242Z,14.30
2022-12-24T16:11:05.770Z,15.47
2022-12-24T16:13:33.494Z,21.70
2022-12-24T16:15:59.937Z,26.40
2022-12-24T16:18:52.161Z,14.37
2022-12-24T16:21:28.474Z,24.03
2022-12-24T16:23:54.108Z,17.57
2022-12-24T16:26:16.173Z,16.93
2022-12-24T16:28:37.660Z,13.73
2022-12-24T16:30:59.308Z,14.23
2022-12-24T16:33:23.004Z,23.50
2022-12-24T16:35:45.961Z,15.47
2022-12-24T16:38:08.305Z,25.60
2022-12-24T16:40:29.896Z,26.70
2022-12-24T16:43:09.892Z,20.53
2022-12-24T16:45:31.864Z,18.73
2022-12-24T16:47:53.507Z,17.03
2022-12-24T16:50:16.600Z,11.43
2022-12-24T16:52:38.094Z,13.67
2022-12-24T16:55:00.821Z,20.57
2022-12-24T16:57:24.023Z,14.07
2022-12-24T16:59:45.576Z,18.60
2022-12-24T17:02:14.405Z,18.37
2022-12-24T17:04:36.499Z,15.87
2022-12-24T17:06:58.261Z,15.10
2022-12-24T17:09:19.724Z,13.20
2022-12-24T17:11:41.166Z,15.90
2022-12-24T17:14:08.027Z,13.77
2022-12-24T17:16:30.601Z,13.83
2022-12-24T17:18:52.278Z,15.73
2022-12-24T17:21:13.948Z,17.10
2022-12-24T17:23:35.412Z,15.03
2022-12-24T17:25:58.053Z,7.93
2022-12-24T17:28:19.607Z,12.00
2022-12-24T17:30:41.194Z,11.10
2022-12-24T17:33:02.685Z,10.67
2022-12-24T17:35:24.131Z,18.20
2022-12-24T17:37:45.575Z,11.00
2022-12-24T17:40:07.770Z,13.23
2022-12-24T17:42:29.204Z,11.07
2022-12-24T17:44:50.671Z,9.30
2022-12-24T17:47:12.099Z,9.27
2022-12-24T17:49:33.722Z,13.33
2022-12-24T17:51:55.189Z,12.27
2022-12-24T17:54:16.650Z,13.10
2022-12-24T17:56:38.150Z,11.03
2022-12-24T17:58:59.690Z,14.47
2022-12-24T18:01:24.255Z,12.00
2022-12-24T18:03:47.176Z,15.77
2022-12-24T18:06:10.602Z,12.60
2022-12-24T18:08:32.399Z,12.43
2022-12-24T18:10:53.871Z,9.53
2022-12-24T18:13:19.283Z,8.80
2022-12-24T18:15:41.363Z,12.07
2022-12-24T18:18:04.048Z,13.30
2022-12-24T18:20:25.523Z,11.13
2022-12-24T18:22:47.877Z,9.57
2022-12-24T18:25:09.866Z,13.30
2022-12-24T18:27:31.309Z,14.60
2022-12-24T18:29:52.754Z,11.83
2022-12-24T18:32:16.910Z,15.27
2022-12-24T18:34:38.543Z,19.10
2022-12-24T18:37:00.111Z,17.87
2022-12-24T18:39:21.604Z,15.83
2022-12-24T18:41:43.042Z,15.57
2022-12-24T18:44:04.682Z,12.83
2022-12-24T18:46:30.236Z,14.77
2022-12-24T18:48:52.346Z,13.77
2022-12-24T18:51:14.483Z,19.77
2022-12-24T18:53:36.179Z,14.47
2022-12-24T18:56:21.772Z,14.20
2022-12-24T18:58:43.932Z,14.80
2022-12-24T19:01:17.059Z,20.43
2022-12-24T19:03:38.807Z,16.20
2022-12-24T19:06:03.536Z,19.67
2022-12-24T19:11:06.851Z,16.27
2022-12-24T19:13:28.440Z,14.00
2022-12-24T19:15:50.075Z,16.90
2022-12-24T19:18:11.622Z,13.23
2022-12-24T19:20:37.879Z,13.00
2022-12-24T19:22:59.340Z,12.37
2022-12-24T19:25:20.769Z,13.70
2022-12-24T19:27:42.245Z,14.33
2022-12-24T19:30:05.078Z,15.67
2022-12-24T19:32:26.509Z,15.63
2022-12-24T19:34:47.987Z,20.30
2022-12-24T19:37:09.508Z,13.73
2022-12-24T19:39:33.316Z,19.00
2022-12-24T19:41:55.141Z,14.37
2022-12-24T19:44:16.586Z,23.40
2022-12-24T19:46:38.282Z,19.60
2022-12-24T19:49:02.027Z,24.60
2022-12-24T19:51:24.991Z,19.97
2022-12-24T19:53:47.640Z,25.63
2022-12-24T19:56:09.486Z,20.17
2022-12-24T19:58:32.748Z,22.43
2022-12-24T20:00:55.006Z,25.07
2022-12-24T20:03:16.695Z,19.73
2022-12-24T20:05:41.742Z,21.00
2022-12-24T20:08:03.305Z,17.30
2022-12-24T20:10:24.720Z,17.60
2022-12-24T20:12:46.192Z,24.40
2022-12-24T20:15:08.359Z,21.30
2022-12-24T20:17:29.791Z,19.23
2022-12-24T20:19:51.284Z,17.43
2022-12-24T20:22:13.224Z,21.73
2022-12-24T20:24:34.707Z,23.33
2022-12-24T20:26:56.188Z,18.50
2022-12-24T20:29:17.653Z,15.20
2022-12-24T20:31:39.699Z,18.80
2022-12-24T20:34:02.449Z,13.33
2022-12-24T20:36:24.913Z,16.53
2022-12-24T20:38:46.926Z,17.87
2022-12-24T20:41:09.912Z,19.80
2022-12-24T20:43:38.369Z,16.67
2022-12-24T20:46:01.404Z,14.87
2022-12-24T20:48:23.828Z,18.97
2022-12-24T20:50:45.311Z,17.73
2022-12-24T20:53:06.809Z,15.37
2022-12-24T20:55:28.267Z,19.63
2022-12-24T20:57:51.087Z,16.10
2022-12-24T21:00:14.377Z,23.20
2022-12-24T21:02:36.002Z,17.17
2022-12-24T21:05:02.012Z,30.50
2022-12-24T21:07:24.133Z,19.60
2022-12-24T21:09:45.606Z,22.43
2022-12-24T21:12:25.791Z,17.33
2022-12-24T21:14:47.246Z,24.37
2022-12-24T21:17:15.180Z,22.03
2022-12-24T21:19:37.285Z,25.00
2022-12-24T21:21:58.806Z,19.70
2022-12-24T21:24:20.252Z,24.57
2022-12-24T21:26:41.738Z,58.57
2022-12-24T21:29:04.650Z,39.77
2022-12-24T21:31:26.369Z,28.37
2022-12-24T21:33:47.946Z,20.17
2022-12-24T21:36:11.616Z,26.73
2022-12-24T21:38:33.951Z,18.93
2022-12-24T21:41:04.310Z,23.47
2022-12-24T21:43:25.794Z,22.50
2022-12-24T21:45:49.684Z,20.17
2022-12-24T21:48:31.214Z,16.07
2022-12-24T21:50:55.598Z,21.07
2022-12-24T21:53:35.658Z,18.63
2022-12-24T21:55:57.084Z,20.50
2022-12-24T21:58:18.544Z,15.23
2022-12-24T22:00:39.988Z,18.67
2022-12-24T22:03:01.594Z,19.00
2022-12-24T22:05:26.066Z,21.37
2022-12-24T22:08:06.336Z,19.00
2022-12-24T22:10:47.179Z,22.87
2022-12-24T22:13:09.587Z,18.33
2022-12-24T22:15:31.088Z,14.53
2022-12-24T22:17:52.563Z,18.87
2022-12-24T22:20:14.047Z,25.13
2022-12-24T22:22:35.548Z,19.43
2022-12-24T22:24:57.043Z,23.43
2022-12-24T22:27:18.587Z,19.63
2022-12-24T22:29:40.092Z,24.17
2022-12-24T22:32:01.568Z,20.60
2022-12-24T22:34:23.021Z,22.10
2022-12-24T22:36:44.489Z,18.57
2022-12-24T22:39:05.940Z,15.93
2022-12-24T22:41:27.399Z,13.57
2022-12-24T22:43:49.719Z,15.17
2022-12-24T22:46:13.318Z,22.37
2022-12-24T22:48:39.031Z,15.00
2022-12-24T22:51:00.543Z,15.83
2022-12-24T22:53:22.119Z,19.37
2022-12-24T22:55:43.559Z,22.07
2022-12-24T22:58:05.053Z,19.80
2022-12-24T23:00:40.178Z,38.93
2022-12-24T23:03:01.845Z,30.50
2022-12-24T23:05:23.393Z,20.03
2022-12-24T23:07:44.916Z,17.20
2022-12-24T23:10:07.280Z,12.83
2022-12-24T23:12:47.029Z,12.87
2022-12-24T23:15:09.267Z,15.70
2022-12-24T23:17:30.713Z,22.37
2022-12-24T23:19:52.154Z,13.10
2022-12-24T23:22:13.632Z,20.73
2022-12-24T23:24:37.975Z,12.03
2022-12-24T23:27:03.138Z,13.00
2022-12-24T23:29:24.952Z,15.20
2022-12-24T23:31:46.388Z,22.40
2022-12-24T23:34:07.895Z,21.87
2022-12-24T23:36:29.756Z,20.17
2022-12-24T23:38:53.400Z,14.73
2022-12-24T23:41:17.693Z,15.70
2022-12-24T23:43:39.215Z,18.93
2022-12-24T23:46:01.287Z,20.80
2022-12-24T23:48:24.438Z,17.93
2022-12-24T23:50:46.409Z,19.73
2022-12-24T23:53:08.057Z,20.30
2022-12-24T23:55:29.481Z,15.47
2022-12-24T23:57:50.926Z,18.57
